^^
Station Historical Data
Daily Summary for February 12, 2018 Units:  Both    English   Metric
« Previous Day
Next Day »
Daily Weekly Monthly Yearly Custom
  High: Low: Average:
Temperature: TemperatureF °F /  -17.8 °C 63.3 °F /  17.4 °C 72.1 °F /  22.3 °C
Dew Point: DewpointF °F /  -17.8 °C 54.1 °F /  12.3 °C 57.9 °F /  14.4 °C
Humidity: Humidity% 36% 64%
Wind Speed: WindSpeedMPHmph /  0km/h - 2.7mph /  4.3km/h
Wind Gust: WindSpeedGustMPHmph /  0km/h - -
Wind- - SSE
Pressure: PressureIn in /  0 hPa 29.71 in /  1006 hPa -
Precipitation: 0.05 in /  1.27 mm    
Historical Graphs
 
 
Tabular Data for February 12, 2018
Time Temperature Dew Point Pressure Wind Wind Speed Wind Gust Humidity Rainfall Rate (Hourly) solar Conditions
TemperatureF °F /  -17.8 °C DewpointF °F /  -17.8 °C PressureInin /  0hPa Calm     Humidity% HourlyPrecipInin /  0mm SolarRadiationWatts/m^2 W/m2 Conditions
00:01 67.6 °F /  19.8 °C 58.3 °F /  14.6 °C 29.83in /  1010hPa ENE 0.9mph /  1.4km/h 2.0mph /  3.2km/h 72% 0.00in /  0mm 0.0 W/m2
00:07 67.6 °F /  19.8 °C 59.7 °F /  15.4 °C 29.83in /  1010hPa East 2.0mph /  3.2km/h 5.0mph /  8km/h 76% 0.00in /  0mm 0.0 W/m2
00:12 67.6 °F /  19.8 °C 60.6 °F /  15.9 °C 29.83in /  1010hPa East 2.0mph /  3.2km/h 3.0mph /  4.8km/h 78% 0.00in /  0mm 0.0 W/m2
00:17 67.5 °F /  19.7 °C 60.8 °F /  16 °C 29.83in /  1010hPa Calm   2.0mph /  3.2km/h 79% 0.00in /  0mm 0.0 W/m2
00:23 67.5 °F /  19.7 °C 60.8 °F /  16 °C 29.82in /  1009.7hPa Calm     79% 0.00in /  0mm 0.0 W/m2
00:29 67.3 °F /  19.6 °C 61.0 °F /  16.1 °C 29.82in /  1009.7hPa Calm   2.0mph /  3.2km/h 80% 0.00in /  0mm 0.0 W/m2
00:34 66.9 °F /  19.4 °C 60.3 °F /  15.7 °C 29.82in /  1009.7hPa SE 0.9mph /  1.4km/h 2.0mph /  3.2km/h 79% 0.00in /  0mm 0.0 W/m2
00:40 66.7 °F /  19.3 °C 59.4 °F /  15.2 °C 29.81in /  1009.4hPa Calm   4.0mph /  6.4km/h 77% 0.00in /  0mm 0.0 W/m2
00:45 66.6 °F /  19.2 °C 59.5 °F /  15.3 °C 29.81in /  1009.4hPa SE 0.9mph /  1.4km/h 3.0mph /  4.8km/h 78% 0.00in /  0mm 0.0 W/m2
00:50 66.6 °F /  19.2 °C 59.2 °F /  15.1 °C 29.81in /  1009.4hPa SSE 0.9mph /  1.4km/h 3.0mph /  4.8km/h 77% 0.00in /  0mm 0.0 W/m2
00:56 66.4 °F /  19.1 °C 59.4 °F /  15.2 °C 29.81in /  1009.4hPa Calm   2.0mph /  3.2km/h 78% 0.00in /  0mm 0.0 W/m2
01:01 66.2 °F /  19 °C 59.2 °F /  15.1 °C 29.81in /  1009.4hPa Calm     78% 0.00in /  0mm 0.0 W/m2
01:06 66.0 °F /  18.9 °C 59.4 °F /  15.2 °C 29.81in /  1009.4hPa NE 2.9mph /  4.7km/h 3.0mph /  4.8km/h 79% 0.00in /  0mm 0.0 W/m2
01:12 65.7 °F /  18.7 °C 59.0 °F /  15 °C 29.81in /  1009.4hPa East 2.0mph /  3.2km/h 6.0mph /  9.7km/h 79% 0.00in /  0mm 0.0 W/m2
01:17 65.5 °F /  18.6 °C 58.8 °F /  14.9 °C 29.81in /  1009.4hPa ESE 2.9mph /  4.7km/h 7.0mph /  11.3km/h 79% 0.00in /  0mm 0.0 W/m2
01:22 65.1 °F /  18.4 °C 58.8 °F /  14.9 °C 29.81in /  1009.4hPa Calm   4.0mph /  6.4km/h 80% 0.00in /  0mm 0.0 W/m2
01:27 64.9 °F /  18.3 °C 59.0 °F /  15 °C 29.80in /  1009hPa Calm   1.0mph /  1.6km/h 81% 0.00in /  0mm 0.0 W/m2
01:32 64.8 °F /  18.2 °C 58.8 °F /  14.9 °C 29.80in /  1009hPa Calm   1.0mph /  1.6km/h 81% 0.00in /  0mm 0.0 W/m2
01:37 64.6 °F /  18.1 °C 59.0 °F /  15 °C 29.80in /  1009hPa ESE 2.0mph /  3.2km/h 3.0mph /  4.8km/h 82% 0.00in /  0mm 0.0 W/m2
01:42 64.2 °F /  17.9 °C 58.6 °F /  14.8 °C 29.79in /  1008.7hPa Calm   4.0mph /  6.4km/h 82% 0.00in /  0mm 0.0 W/m2
01:47 64.2 °F /  17.9 °C 58.6 °F /  14.8 °C 29.79in /  1008.7hPa Calm   1.0mph /  1.6km/h 82% 0.00in /  0mm 0.0 W/m2
01:53 64.0 °F /  17.8 °C 58.5 °F /  14.7 °C 29.79in /  1008.7hPa NE 2.0mph /  3.2km/h 3.0mph /  4.8km/h 82% 0.00in /  0mm 0.0 W/m2
01:58 64.0 °F /  17.8 °C 58.8 °F /  14.9 °C 29.79in /  1008.7hPa Calm   7.0mph /  11.3km/h 83% 0.00in /  0mm 0.0 W/m2
02:03 64.0 °F /  17.8 °C 58.8 °F /  14.9 °C 29.79in /  1008.7hPa NNE 0.9mph /  1.4km/h 3.0mph /  4.8km/h 83% 0.00in /  0mm 0.0 W/m2
02:08 63.9 °F /  17.7 °C 58.6 °F /  14.8 °C 29.79in /  1008.7hPa ENE 4.0mph /  6.4km/h 5.0mph /  8km/h 83% 0.00in /  0mm 0.0 W/m2
02:13 63.9 °F /  17.7 °C 58.6 °F /  14.8 °C 29.78in /  1008.4hPa NNE 2.9mph /  4.7km/h 4.0mph /  6.4km/h 83% 0.00in /  0mm 0.0 W/m2
02:18 63.9 °F /  17.7 °C 58.6 °F /  14.8 °C 29.78in /  1008.4hPa NE 2.9mph /  4.7km/h 3.0mph /  4.8km/h 83% 0.00in /  0mm 0.0 W/m2
02:23 63.7 °F /  17.6 °C 58.5 °F /  14.7 °C 29.78in /  1008.4hPa NE 2.0mph /  3.2km/h 6.0mph /  9.7km/h 83% 0.00in /  0mm 0.0 W/m2
02:28 63.7 °F /  17.6 °C 58.5 °F /  14.7 °C 29.78in /  1008.4hPa NE 2.9mph /  4.7km/h 4.0mph /  6.4km/h 83% 0.00in /  0mm 0.0 W/m2
02:33 63.7 °F /  17.6 °C 58.5 °F /  14.7 °C 29.78in /  1008.4hPa Calm   5.0mph /  8km/h 83% 0.00in /  0mm 0.0 W/m2
02:38 63.7 °F /  17.6 °C 58.5 °F /  14.7 °C 29.78in /  1008.4hPa Calm   9.0mph /  14.5km/h 83% 0.00in /  0mm 0.0 W/m2
02:43 63.7 °F /  17.6 °C 58.5 °F /  14.7 °C 29.78in /  1008.4hPa East 2.0mph /  3.2km/h 4.0mph /  6.4km/h 83% 0.00in /  0mm 0.0 W/m2
02:48 63.5 °F /  17.5 °C 58.3 °F /  14.6 °C 29.78in /  1008.4hPa ESE 4.0mph /  6.4km/h 6.0mph /  9.7km/h 83% 0.00in /  0mm 0.0 W/m2
02:53 63.5 °F /  17.5 °C 58.3 °F /  14.6 °C 29.78in /  1008.4hPa NE 4.0mph /  6.4km/h 5.0mph /  8km/h 83% 0.00in /  0mm 0.0 W/m2
02:59 63.3 °F /  17.4 °C 58.1 °F /  14.5 °C 29.78in /  1008.4hPa ENE 2.9mph /  4.7km/h 5.0mph /  8km/h 83% 0.00in /  0mm 0.0 W/m2
03:04 63.3 °F /  17.4 °C 58.1 °F /  14.5 °C 29.78in /  1008.4hPa Calm   1.0mph /  1.6km/h 83% 0.00in /  0mm 0.0 W/m2
03:09 63.5 °F /  17.5 °C 58.3 °F /  14.6 °C 29.77in /  1008hPa East 4.9mph /  7.9km/h 5.0mph /  8km/h 83% 0.00in /  0mm 0.0 W/m2
03:15 63.5 °F /  17.5 °C 58.3 °F /  14.6 °C 29.77in /  1008hPa Calm   3.0mph /  4.8km/h 83% 0.00in /  0mm 0.0 W/m2
03:20 63.7 °F /  17.6 °C 58.5 °F /  14.7 °C 29.77in /  1008hPa Calm   1.0mph /  1.6km/h 83% 0.00in /  0mm 0.0 W/m2
03:25 63.7 °F /  17.6 °C 58.5 °F /  14.7 °C 29.77in /  1008hPa Calm   2.0mph /  3.2km/h 83% 0.00in /  0mm 0.0 W/m2
03:30 63.7 °F /  17.6 °C 58.5 °F /  14.7 °C 29.77in /  1008hPa South 0.9mph /  1.4km/h 2.0mph /  3.2km/h 83% 0.00in /  0mm 0.0 W/m2
03:35 63.7 °F /  17.6 °C 58.1 °F /  14.5 °C 29.77in /  1008hPa Calm     82% 0.00in /  0mm 0.0 W/m2
03:40 63.7 °F /  17.6 °C 58.1 °F /  14.5 °C 29.77in /  1008hPa Calm   3.0mph /  4.8km/h 82% 0.00in /  0mm 0.0 W/m2
03:45 63.7 °F /  17.6 °C 58.1 °F /  14.5 °C 29.77in /  1008hPa Calm   1.0mph /  1.6km/h 82% 0.00in /  0mm 0.0 W/m2
03:51 63.9 °F /  17.7 °C 57.9 °F /  14.4 °C 29.77in /  1008hPa East 0.9mph /  1.4km/h 1.0mph /  1.6km/h 81% 0.00in /  0mm 0.0 W/m2
03:56 63.9 °F /  17.7 °C 57.9 °F /  14.4 °C 29.77in /  1008hPa Calm   2.0mph /  3.2km/h 81% 0.00in /  0mm 0.0 W/m2
04:01 63.9 °F /  17.7 °C 57.9 °F /  14.4 °C 29.77in /  1008hPa Calm   4.0mph /  6.4km/h 81% 0.00in /  0mm 0.0 W/m2
04:07 63.9 °F /  17.7 °C 58.3 °F /  14.6 °C 29.77in /  1008hPa Calm   1.0mph /  1.6km/h 82% 0.00in /  0mm 0.0 W/m2
04:13 63.9 °F /  17.7 °C 58.3 °F /  14.6 °C 29.77in /  1008hPa NE 0.9mph /  1.4km/h 2.0mph /  3.2km/h 82% 0.00in /  0mm 0.0 W/m2
04:17 63.9 °F /  17.7 °C 58.3 °F /  14.6 °C 29.77in /  1008hPa Calm   3.0mph /  4.8km/h 82% 0.00in /  0mm 0.0 W/m2
04:23 63.9 °F /  17.7 °C 58.3 °F /  14.6 °C 29.77in /  1008hPa ENE 0.9mph /  1.4km/h 3.0mph /  4.8km/h 82% 0.00in /  0mm 0.0 W/m2
04:27 63.9 °F /  17.7 °C 58.6 °F /  14.8 °C 29.77in /  1008hPa Calm   2.0mph /  3.2km/h 83% 0.00in /  0mm 0.0 W/m2
04:32 63.9 °F /  17.7 °C 58.6 °F /  14.8 °C 29.76in /  1007.7hPa ENE 0.9mph /  1.4km/h 3.0mph /  4.8km/h 83% 0.00in /  0mm 0.0 W/m2
04:37 63.9 °F /  17.7 °C 58.6 °F /  14.8 °C 29.77in /  1008hPa Calm     83% 0.00in /  0mm 0.0 W/m2
04:42 63.9 °F /  17.7 °C 58.6 °F /  14.8 °C 29.77in /  1008hPa ESE 0.9mph /  1.4km/h 3.0mph /  4.8km/h 83% 0.00in /  0mm 0.0 W/m2
04:48 63.9 °F /  17.7 °C 59.0 °F /  15 °C 29.77in /  1008hPa ESE 0.9mph /  1.4km/h 3.0mph /  4.8km/h 84% 0.00in /  0mm 0.0 W/m2
04:53 63.7 °F /  17.6 °C 58.8 °F /  14.9 °C 29.77in /  1008hPa Calm   4.0mph /  6.4km/h 84% 0.00in /  0mm 0.0 W/m2
04:58 63.7 °F /  17.6 °C 58.8 °F /  14.9 °C 29.77in /  1008hPa Calm   5.0mph /  8km/h 84% 0.00in /  0mm 0.0 W/m2
05:03 63.7 °F /  17.6 °C 59.0 °F /  15 °C 29.77in /  1008hPa Calm   3.0mph /  4.8km/h 85% 0.00in /  0mm 0.0 W/m2
05:08 63.7 °F /  17.6 °C 59.0 °F /  15 °C 29.77in /  1008hPa Calm   1.0mph /  1.6km/h 85% 0.00in /  0mm 0.0 W/m2
05:13 63.7 °F /  17.6 °C 58.8 °F /  14.9 °C 29.77in /  1008hPa ESE 2.0mph /  3.2km/h 4.0mph /  6.4km/h 84% 0.00in /  0mm 0.0 W/m2
05:19 63.5 °F /  17.5 °C 58.6 °F /  14.8 °C 29.77in /  1008hPa ESE 2.9mph /  4.7km/h 6.0mph /  9.7km/h 84% 0.00in /  0mm 0.0 W/m2
05:24 63.5 °F /  17.5 °C 58.6 °F /  14.8 °C 29.77in /  1008hPa NE 2.9mph /  4.7km/h 4.0mph /  6.4km/h 84% 0.00in /  0mm 0.0 W/m2
05:29 63.5 °F /  17.5 °C 58.6 °F /  14.8 °C 29.77in /  1008hPa SSE 0.9mph /  1.4km/h 2.0mph /  3.2km/h 84% 0.00in /  0mm 0.0 W/m2
05:34 63.5 °F /  17.5 °C 58.6 °F /  14.8 °C 29.77in /  1008hPa SE 2.9mph /  4.7km/h 3.0mph /  4.8km/h 84% 0.00in /  0mm 0.0 W/m2
05:39 63.7 °F /  17.6 °C 58.8 °F /  14.9 °C 29.77in /  1008hPa SE 2.0mph /  3.2km/h 3.0mph /  4.8km/h 84% 0.00in /  0mm 0.0 W/m2
05:44 63.7 °F /  17.6 °C 58.5 °F /  14.7 °C 29.77in /  1008hPa Calm   2.0mph /  3.2km/h 83% 0.00in /  0mm 0.0 W/m2
05:49 63.7 °F /  17.6 °C 58.5 °F /  14.7 °C 29.77in /  1008hPa Calm   2.0mph /  3.2km/h 83% 0.00in /  0mm 0.0 W/m2
05:54 63.7 °F /  17.6 °C 58.1 °F /  14.5 °C 29.77in /  1008hPa Calm   1.0mph /  1.6km/h 82% 0.00in /  0mm 0.0 W/m2
06:00 63.9 °F /  17.7 °C 58.3 °F /  14.6 °C 29.77in /  1008hPa Calm     82% 0.00in /  0mm 0.0 W/m2
06:05 63.9 °F /  17.7 °C 58.3 °F /  14.6 °C 29.77in /  1008hPa Calm     82% 0.00in /  0mm 0.0 W/m2
06:10 63.9 °F /  17.7 °C 58.3 °F /  14.6 °C 29.77in /  1008hPa Calm     82% 0.00in /  0mm 0.0 W/m2
06:15 64.0 °F /  17.8 °C 58.1 °F /  14.5 °C 29.78in /  1008.4hPa NE 0.9mph /  1.4km/h 2.0mph /  3.2km/h 81% 0.00in /  0mm 0.0 W/m2
06:20 64.0 °F /  17.8 °C 58.1 °F /  14.5 °C 29.78in /  1008.4hPa NNE 2.9mph /  4.7km/h 5.0mph /  8km/h 81% 0.00in /  0mm 0.0 W/m2
06:25 64.0 °F /  17.8 °C 57.7 °F /  14.3 °C 29.78in /  1008.4hPa NE 2.0mph /  3.2km/h 4.0mph /  6.4km/h 80% 0.00in /  0mm 0.0 W/m2
06:30 64.0 °F /  17.8 °C 57.4 °F /  14.1 °C 29.78in /  1008.4hPa ENE 2.9mph /  4.7km/h 5.0mph /  8km/h 79% 0.00in /  0mm 0.0 W/m2
06:35 64.0 °F /  17.8 °C 57.4 °F /  14.1 °C 29.78in /  1008.4hPa ENE 2.0mph /  3.2km/h 4.0mph /  6.4km/h 79% 0.00in /  0mm 0.0 W/m2
06:41 64.0 °F /  17.8 °C 57.4 °F /  14.1 °C 29.78in /  1008.4hPa NE 2.0mph /  3.2km/h 6.0mph /  9.7km/h 79% 0.00in /  0mm 0.0 W/m2
06:46 64.0 °F /  17.8 °C 57.4 °F /  14.1 °C 29.79in /  1008.7hPa NE 2.0mph /  3.2km/h 6.0mph /  9.7km/h 79% 0.00in /  0mm 5.0 W/m2
06:51 64.0 °F /  17.8 °C 57.4 °F /  14.1 °C 29.79in /  1008.7hPa ENE 4.0mph /  6.4km/h 7.0mph /  11.3km/h 79% 0.00in /  0mm 9.0 W/m2
06:56 64.0 °F /  17.8 °C 57.0 °F /  13.9 °C 29.79in /  1008.7hPa NNE 2.0mph /  3.2km/h 5.0mph /  8km/h 78% 0.00in /  0mm 14.0 W/m2
07:01 63.9 °F /  17.7 °C 57.2 °F /  14 °C 29.79in /  1008.7hPa NE 4.9mph /  7.9km/h 7.0mph /  11.3km/h 79% 0.00in /  0mm 19.0 W/m2
07:06 63.9 °F /  17.7 °C 57.2 °F /  14 °C 29.79in /  1008.7hPa ENE 0.9mph /  1.4km/h 4.0mph /  6.4km/h 79% 0.00in /  0mm 26.0 W/m2
07:11 63.9 °F /  17.7 °C 57.2 °F /  14 °C 29.79in /  1008.7hPa ENE 2.0mph /  3.2km/h 5.0mph /  8km/h 79% 0.00in /  0mm 37.0 W/m2
07:16 63.9 °F /  17.7 °C 57.6 °F /  14.2 °C 29.79in /  1008.7hPa Calm   6.0mph /  9.7km/h 80% 0.00in /  0mm 46.0 W/m2
07:21 63.9 °F /  17.7 °C 57.2 °F /  14 °C 29.79in /  1008.7hPa NE 4.0mph /  6.4km/h 7.0mph /  11.3km/h 79% 0.00in /  0mm 54.0 W/m2
07:26 64.0 °F /  17.8 °C 57.4 °F /  14.1 °C 29.78in /  1008.4hPa North 2.0mph /  3.2km/h 3.0mph /  4.8km/h 79% 0.00in /  0mm 60.0 W/m2
07:32 64.2 °F /  17.9 °C 57.6 °F /  14.2 °C 29.79in /  1008.7hPa NNE 0.9mph /  1.4km/h 3.0mph /  4.8km/h 79% 0.00in /  0mm 67.0 W/m2
07:37 64.6 °F /  18.1 °C 57.6 °F /  14.2 °C 29.79in /  1008.7hPa NNE 2.9mph /  4.7km/h 6.0mph /  9.7km/h 78% 0.00in /  0mm 79.0 W/m2
07:42 64.8 °F /  18.2 °C 57.4 °F /  14.1 °C 29.79in /  1008.7hPa Calm   6.0mph /  9.7km/h 77% 0.00in /  0mm 84.0 W/m2
07:47 64.8 °F /  18.2 °C 57.4 °F /  14.1 °C 29.79in /  1008.7hPa Calm   1.0mph /  1.6km/h 77% 0.00in /  0mm 83.0 W/m2
07:52 64.9 °F /  18.3 °C 57.6 °F /  14.2 °C 29.79in /  1008.7hPa Calm   6.0mph /  9.7km/h 77% 0.00in /  0mm 84.0 W/m2
07:57 65.1 °F /  18.4 °C 57.4 °F /  14.1 °C 29.79in /  1008.7hPa Calm   5.0mph /  8km/h 76% 0.00in /  0mm 102.0 W/m2
08:02 65.3 °F /  18.5 °C 57.6 °F /  14.2 °C 29.80in /  1009hPa NE 0.9mph /  1.4km/h 6.0mph /  9.7km/h 76% 0.00in /  0mm 104.0 W/m2
08:07 65.5 °F /  18.6 °C 57.7 °F /  14.3 °C 29.79in /  1008.7hPa ENE 2.0mph /  3.2km/h 5.0mph /  8km/h 76% 0.00in /  0mm 111.0 W/m2
08:12 65.7 °F /  18.7 °C 57.6 °F /  14.2 °C 29.80in /  1009hPa Calm   6.0mph /  9.7km/h 75% 0.00in /  0mm 118.0 W/m2
08:17 66.0 °F /  18.9 °C 57.9 °F /  14.4 °C 29.80in /  1009hPa East 0.9mph /  1.4km/h 7.0mph /  11.3km/h 75% 0.00in /  0mm 127.0 W/m2
08:22 66.4 °F /  19.1 °C 58.6 °F /  14.8 °C 29.80in /  1009hPa NNE 2.0mph /  3.2km/h 6.0mph /  9.7km/h 76% 0.00in /  0mm 116.0 W/m2
08:27 66.6 °F /  19.2 °C 58.5 °F /  14.7 °C 29.80in /  1009hPa Calm   7.0mph /  11.3km/h 75% 0.00in /  0mm 123.0 W/m2
08:32 66.7 °F /  19.3 °C 58.6 °F /  14.8 °C 29.80in /  1009hPa East 4.0mph /  6.4km/h 10.0mph /  16.1km/h 75% 0.00in /  0mm 128.0 W/m2
08:37 66.9 °F /  19.4 °C 58.8 °F /  14.9 °C 29.80in /  1009hPa NE 4.0mph /  6.4km/h 9.0mph /  14.5km/h 75% 0.00in /  0mm 128.0 W/m2
08:42 67.3 °F /  19.6 °C 59.0 °F /  15 °C 29.80in /  1009hPa ENE 2.9mph /  4.7km/h 7.0mph /  11.3km/h 75% 0.00in /  0mm 123.0 W/m2
08:48 67.5 °F /  19.7 °C 58.8 °F /  14.9 °C 29.80in /  1009hPa ESE 2.9mph /  4.7km/h 6.0mph /  9.7km/h 74% 0.00in /  0mm 492.0 W/m2
08:53 67.8 °F /  19.9 °C 58.8 °F /  14.9 °C 29.80in /  1009hPa ENE 2.9mph /  4.7km/h 10.0mph /  16.1km/h 73% 0.00in /  0mm 506.0 W/m2
08:58 68.2 °F /  20.1 °C 58.8 °F /  14.9 °C 29.80in /  1009hPa NE 6.0mph /  9.7km/h 8.0mph /  12.9km/h 72% 0.00in /  0mm 522.0 W/m2
09:03 68.7 °F /  20.4 °C 59.4 °F /  15.2 °C 29.80in /  1009hPa NNE 2.9mph /  4.7km/h 10.0mph /  16.1km/h 72% 0.00in /  0mm 540.0 W/m2
09:08 69.3 °F /  20.7 °C 59.5 °F /  15.3 °C 29.80in /  1009hPa Calm   7.0mph /  11.3km/h 71% 0.00in /  0mm 557.0 W/m2
09:13 70.0 °F /  21.1 °C 59.7 °F /  15.4 °C 29.80in /  1009hPa ENE 4.0mph /  6.4km/h 7.0mph /  11.3km/h 70% 0.00in /  0mm 580.0 W/m2
09:18 70.5 °F /  21.4 °C 59.9 °F /  15.5 °C 29.80in /  1009hPa Calm   8.0mph /  12.9km/h 69% 0.00in /  0mm 605.0 W/m2
09:23 71.1 °F /  21.7 °C 59.9 °F /  15.5 °C 29.80in /  1009hPa SE 2.9mph /  4.7km/h 9.0mph /  14.5km/h 68% 0.00in /  0mm 633.0 W/m2
09:29 71.6 °F /  22 °C 60.1 °F /  15.6 °C 29.80in /  1009hPa North 2.0mph /  3.2km/h 9.0mph /  14.5km/h 67% 0.00in /  0mm 666.0 W/m2
09:34 72.1 °F /  22.3 °C 60.1 °F /  15.6 °C 29.80in /  1009hPa ESE 0.9mph /  1.4km/h 7.0mph /  11.3km/h 66% 0.00in /  0mm 693.0 W/m2
09:39 72.7 °F /  22.6 °C 60.6 °F /  15.9 °C 29.80in /  1009hPa East 2.0mph /  3.2km/h 6.0mph /  9.7km/h 66% 0.00in /  0mm 673.0 W/m2
09:44 73.2 °F /  22.9 °C 60.8 °F /  16 °C 29.80in /  1009hPa ESE 0.9mph /  1.4km/h 10.0mph /  16.1km/h 65% 0.00in /  0mm 686.0 W/m2
09:49 73.8 °F /  23.2 °C 60.4 °F /  15.8 °C 29.80in /  1009hPa ESE 6.0mph /  9.7km/h 9.0mph /  14.5km/h 63% 0.00in /  0mm 703.0 W/m2
09:54 74.1 °F /  23.4 °C 60.3 °F /  15.7 °C 29.80in /  1009hPa SSE 2.9mph /  4.7km/h 4.0mph /  6.4km/h 62% 0.00in /  0mm 717.0 W/m2
09:59 74.8 °F /  23.8 °C 60.1 °F /  15.6 °C 29.80in /  1009hPa ESE 0.9mph /  1.4km/h 8.0mph /  12.9km/h 60% 0.00in /  0mm 733.0 W/m2
10:05 75.4 °F /  24.1 °C 61.0 °F /  16.1 °C 29.80in /  1009hPa SE 2.0mph /  3.2km/h 5.0mph /  8km/h 61% 0.00in /  0mm 745.0 W/m2
10:10 75.4 °F /  24.1 °C 60.4 °F /  15.8 °C 29.80in /  1009hPa East 2.9mph /  4.7km/h 4.0mph /  6.4km/h 60% 0.00in /  0mm 768.0 W/m2
10:15 75.7 °F /  24.3 °C 60.8 °F /  16 °C 29.80in /  1009hPa Calm   4.0mph /  6.4km/h 60% 0.00in /  0mm 795.0 W/m2
10:20 76.5 °F /  24.7 °C 60.6 °F /  15.9 °C 29.80in /  1009hPa East 2.0mph /  3.2km/h 9.0mph /  14.5km/h 58% 0.00in /  0mm 780.0 W/m2
10:25 76.8 °F /  24.9 °C 61.0 °F /  16.1 °C 29.80in /  1009hPa NE 2.0mph /  3.2km/h 5.0mph /  8km/h 58% 0.00in /  0mm 802.0 W/m2
10:30 77.5 °F /  25.3 °C 59.5 °F /  15.3 °C 29.80in /  1009hPa East 4.0mph /  6.4km/h 7.0mph /  11.3km/h 54% 0.00in /  0mm 868.0 W/m2
10:35 78.3 °F /  25.7 °C 59.2 °F /  15.1 °C 29.80in /  1009hPa North 4.9mph /  7.9km/h 8.0mph /  12.9km/h 52% 0.00in /  0mm 879.0 W/m2
10:40 79.0 °F /  26.1 °C 59.4 °F /  15.2 °C 29.79in /  1008.7hPa NNW 2.0mph /  3.2km/h 3.0mph /  4.8km/h 51% 0.00in /  0mm 798.0 W/m2
10:45 79.3 °F /  26.3 °C 58.5 °F /  14.7 °C 29.79in /  1008.7hPa NNE 4.9mph /  7.9km/h 10.0mph /  16.1km/h 49% 0.00in /  0mm 853.0 W/m2
10:50 79.2 °F /  26.2 °C 57.7 °F /  14.3 °C 29.79in /  1008.7hPa WNW 6.9mph /  11.1km/h 7.0mph /  11.3km/h 48% 0.00in /  0mm 679.0 W/m2
10:56 79.2 °F /  26.2 °C 58.3 °F /  14.6 °C 29.79in /  1008.7hPa North 4.0mph /  6.4km/h 8.0mph /  12.9km/h 49% 0.00in /  0mm 868.0 W/m2
11:01 79.3 °F /  26.3 °C 57.9 °F /  14.4 °C 29.79in /  1008.7hPa Calm   7.0mph /  11.3km/h 48% 0.00in /  0mm 854.0 W/m2
11:06 79.5 °F /  26.4 °C 58.1 °F /  14.5 °C 29.79in /  1008.7hPa ENE 4.0mph /  6.4km/h 8.0mph /  12.9km/h 48% 0.00in /  0mm 397.0 W/m2
11:11 79.2 °F /  26.2 °C 57.7 °F /  14.3 °C 29.80in /  1009hPa WNW 4.0mph /  6.4km/h 9.0mph /  14.5km/h 48% 0.00in /  0mm 309.0 W/m2
11:16 79.0 °F /  26.1 °C 58.1 °F /  14.5 °C 29.79in /  1008.7hPa North 6.0mph /  9.7km/h 7.0mph /  11.3km/h 49% 0.00in /  0mm 346.0 W/m2
11:21 79.0 °F /  26.1 °C 57.6 °F /  14.2 °C 29.79in /  1008.7hPa NNE 6.0mph /  9.7km/h 10.0mph /  16.1km/h 48% 0.00in /  0mm 332.0 W/m2
11:26 79.0 °F /  26.1 °C 57.0 °F /  13.9 °C 29.79in /  1008.7hPa NNE 4.0mph /  6.4km/h 9.0mph /  14.5km/h 47% 0.00in /  0mm 362.0 W/m2
11:31 79.2 °F /  26.2 °C 57.2 °F /  14 °C 29.79in /  1008.7hPa NW 2.0mph /  3.2km/h 6.0mph /  9.7km/h 47% 0.00in /  0mm 1148.0 W/m2
11:36 79.2 °F /  26.2 °C 59.0 °F /  15 °C 29.79in /  1008.7hPa WNW 4.0mph /  6.4km/h 8.0mph /  12.9km/h 50% 0.00in /  0mm 176.0 W/m2
11:41 78.8 °F /  26 °C 57.4 °F /  14.1 °C 29.79in /  1008.7hPa NNW 6.0mph /  9.7km/h 8.0mph /  12.9km/h 48% 0.00in /  0mm 151.0 W/m2
11:46 78.4 °F /  25.8 °C 58.3 °F /  14.6 °C 29.79in /  1008.7hPa NNW 0.9mph /  1.4km/h 8.0mph /  12.9km/h 50% 0.00in /  0mm 1165.0 W/m2
11:52 79.3 °F /  26.3 °C 59.0 °F /  15 °C 29.79in /  1008.7hPa WSW 4.9mph /  7.9km/h 11.0mph /  17.7km/h 50% 0.00in /  0mm 1192.0 W/m2
11:57 80.1 °F /  26.7 °C 58.1 °F /  14.5 °C 29.79in /  1008.7hPa North 4.0mph /  6.4km/h 9.0mph /  14.5km/h 47% 0.00in /  0mm 1150.0 W/m2
12:02 80.8 °F /  27.1 °C 58.1 °F /  14.5 °C 29.78in /  1008.4hPa Calm   9.0mph /  14.5km/h 46% 0.00in /  0mm 1238.0 W/m2
12:07 81.7 °F /  27.6 °C 57.6 °F /  14.2 °C 29.78in /  1008.4hPa NNW 4.9mph /  7.9km/h 10.0mph /  16.1km/h 44% 0.00in /  0mm 1190.0 W/m2
12:12 81.9 °F /  27.7 °C 58.5 °F /  14.7 °C 29.78in /  1008.4hPa NNE 6.9mph /  11.1km/h 7.0mph /  11.3km/h 45% 0.00in /  0mm 267.0 W/m2
12:17 81.3 °F /  27.4 °C 56.7 °F /  13.7 °C 29.78in /  1008.4hPa NNW 2.0mph /  3.2km/h 9.0mph /  14.5km/h 43% 0.00in /  0mm 199.0 W/m2
12:22 81.0 °F /  27.2 °C 56.3 °F /  13.5 °C 29.78in /  1008.4hPa NW 2.9mph /  4.7km/h 9.0mph /  14.5km/h 43% 0.00in /  0mm 1239.0 W/m2
12:27 81.7 °F /  27.6 °C 57.0 °F /  13.9 °C 29.78in /  1008.4hPa North 6.0mph /  9.7km/h 13.0mph /  20.9km/h 43% 0.00in /  0mm 1253.0 W/m2
12:32 81.9 °F /  27.7 °C 57.2 °F /  14 °C 29.79in /  1008.7hPa North 4.9mph /  7.9km/h 11.0mph /  17.7km/h 43% 0.00in /  0mm 223.0 W/m2
12:38 81.3 °F /  27.4 °C 57.4 °F /  14.1 °C 29.78in /  1008.4hPa West 2.0mph /  3.2km/h 3.0mph /  4.8km/h 44% 0.00in /  0mm 1202.0 W/m2
12:43 81.9 °F /  27.7 °C 57.7 °F /  14.3 °C 29.78in /  1008.4hPa NE 8.9mph /  14.3km/h 12.0mph /  19.3km/h 44% 0.00in /  0mm 1250.0 W/m2
12:48 82.6 °F /  28.1 °C 57.2 °F /  14 °C 29.78in /  1008.4hPa NNW 6.0mph /  9.7km/h 10.0mph /  16.1km/h 42% 0.00in /  0mm 1267.0 W/m2
12:53 82.8 °F /  28.2 °C 56.7 °F /  13.7 °C 29.78in /  1008.4hPa North 6.9mph /  11.1km/h 10.0mph /  16.1km/h 41% 0.00in /  0mm 378.0 W/m2
12:58 82.9 °F /  28.3 °C 56.8 °F /  13.8 °C 29.78in /  1008.4hPa Calm   10.0mph /  16.1km/h 41% 0.00in /  0mm 1225.0 W/m2
13:03 83.7 °F /  28.7 °C 56.8 °F /  13.8 °C 29.78in /  1008.4hPa North 4.0mph /  6.4km/h 10.0mph /  16.1km/h 40% 0.00in /  0mm 1245.0 W/m2
13:08 84.7 °F /  29.3 °C 57.0 °F /  13.9 °C 29.78in /  1008.4hPa North 0.9mph /  1.4km/h 10.0mph /  16.1km/h 39% 0.00in /  0mm 1292.0 W/m2
13:13 84.4 °F /  29.1 °C 57.4 °F /  14.1 °C 29.78in /  1008.4hPa North 10.1mph /  16.3km/h 12.0mph /  19.3km/h 40% 0.00in /  0mm 1266.0 W/m2
13:18 84.4 °F /  29.1 °C 56.7 °F /  13.7 °C 29.77in /  1008hPa WNW 8.1mph /  13km/h 13.0mph /  20.9km/h 39% 0.00in /  0mm 1278.0 W/m2
13:23 84.4 °F /  29.1 °C 57.4 °F /  14.1 °C 29.77in /  1008hPa NNW 6.9mph /  11.1km/h 9.0mph /  14.5km/h 40% 0.00in /  0mm 1313.0 W/m2
13:29 84.6 °F /  29.2 °C 56.8 °F /  13.8 °C 29.77in /  1008hPa North 6.9mph /  11.1km/h 10.0mph /  16.1km/h 39% 0.00in /  0mm 295.0 W/m2
13:34 83.7 °F /  28.7 °C 57.4 °F /  14.1 °C 29.77in /  1008hPa NNE 4.0mph /  6.4km/h 7.0mph /  11.3km/h 41% 0.00in /  0mm 334.0 W/m2
13:39 82.9 °F /  28.3 °C 56.8 °F /  13.8 °C 29.76in /  1007.7hPa NW 4.9mph /  7.9km/h 10.0mph /  16.1km/h 41% 0.00in /  0mm 350.0 W/m2
13:44 82.8 °F /  28.2 °C 56.7 °F /  13.7 °C 29.76in /  1007.7hPa NW 4.0mph /  6.4km/h 10.0mph /  16.1km/h 41% 0.00in /  0mm 1306.0 W/m2
13:49 83.7 °F /  28.7 °C 56.8 °F /  13.8 °C 29.76in /  1007.7hPa NW 4.0mph /  6.4km/h 7.0mph /  11.3km/h 40% 0.00in /  0mm 1296.0 W/m2
13:54 84.7 °F /  29.3 °C 56.3 °F /  13.5 °C 29.76in /  1007.7hPa NNW 2.0mph /  3.2km/h 7.0mph /  11.3km/h 38% 0.00in /  0mm 237.0 W/m2
13:59 84.6 °F /  29.2 °C 56.8 °F /  13.8 °C 29.76in /  1007.7hPa NE 4.0mph /  6.4km/h 8.0mph /  12.9km/h 39% 0.00in /  0mm 253.0 W/m2
14:04 83.7 °F /  28.7 °C 56.1 °F /  13.4 °C 29.76in /  1007.7hPa NNW 4.9mph /  7.9km/h 7.0mph /  11.3km/h 39% 0.00in /  0mm 582.0 W/m2
14:09 83.1 °F /  28.4 °C 56.3 °F /  13.5 °C 29.76in /  1007.7hPa NNW 6.0mph /  9.7km/h 6.0mph /  9.7km/h 40% 0.00in /  0mm 297.0 W/m2
14:15 82.9 °F /  28.3 °C 55.4 °F /  13 °C 29.76in /  1007.7hPa North 8.1mph /  13km/h 13.0mph /  20.9km/h 39% 0.00in /  0mm 357.0 W/m2
14:20 82.9 °F /  28.3 °C 56.1 °F /  13.4 °C 29.75in /  1007.3hPa NNW 8.1mph /  13km/h 10.0mph /  16.1km/h 40% 0.00in /  0mm 759.0 W/m2
14:25 82.9 °F /  28.3 °C 55.4 °F /  13 °C 29.75in /  1007.3hPa North 4.9mph /  7.9km/h 7.0mph /  11.3km/h 39% 0.00in /  0mm 274.0 W/m2
14:30 82.6 °F /  28.1 °C 55.8 °F /  13.2 °C 29.75in /  1007.3hPa NNW 2.9mph /  4.7km/h 9.0mph /  14.5km/h 40% 0.00in /  0mm 339.0 W/m2
14:35 82.8 °F /  28.2 °C 55.9 °F /  13.3 °C 29.75in /  1007.3hPa NNW 0.9mph /  1.4km/h 5.0mph /  8km/h 40% 0.00in /  0mm 1113.0 W/m2
14:40 83.5 °F /  28.6 °C 55.9 °F /  13.3 °C 29.75in /  1007.3hPa NNW 4.0mph /  6.4km/h 9.0mph /  14.5km/h 39% 0.00in /  0mm 1085.0 W/m2
14:45 84.6 °F /  29.2 °C 56.1 °F /  13.4 °C 29.75in /  1007.3hPa North 8.1mph /  13km/h 14.0mph /  22.5km/h 38% 0.00in /  0mm 1129.0 W/m2
14:50 84.6 °F /  29.2 °C 56.1 °F /  13.4 °C 29.75in /  1007.3hPa NNE 4.0mph /  6.4km/h 8.0mph /  12.9km/h 38% 0.00in /  0mm 234.0 W/m2
14:55 83.8 °F /  28.8 °C 55.6 °F /  13.1 °C 29.75in /  1007.3hPa NNE 6.0mph /  9.7km/h 9.0mph /  14.5km/h 38% 0.00in /  0mm 253.0 W/m2
15:00 82.8 °F /  28.2 °C 55.2 °F /  12.9 °C 29.74in /  1007hPa NNW 4.9mph /  7.9km/h 11.0mph /  17.7km/h 39% 0.00in /  0mm 311.0 W/m2
15:06 82.8 °F /  28.2 °C 55.2 °F /  12.9 °C 29.74in /  1007hPa NNW 4.0mph /  6.4km/h 6.0mph /  9.7km/h 39% 0.00in /  0mm 654.0 W/m2
15:11 83.5 °F /  28.6 °C 55.2 °F /  12.9 °C 29.74in /  1007hPa NNW 2.9mph /  4.7km/h 8.0mph /  12.9km/h 38% 0.00in /  0mm 960.0 W/m2
15:16 84.0 °F /  28.9 °C 56.5 °F /  13.6 °C 29.74in /  1007hPa NW 6.9mph /  11.1km/h 8.0mph /  12.9km/h 39% 0.00in /  0mm 935.0 W/m2
15:21 84.6 °F /  29.2 °C 55.4 °F /  13 °C 29.73in /  1006.7hPa NE 4.9mph /  7.9km/h 10.0mph /  16.1km/h 37% 0.00in /  0mm 969.0 W/m2
15:26 84.6 °F /  29.2 °C 55.4 °F /  13 °C 29.73in /  1006.7hPa NNE 4.0mph /  6.4km/h 8.0mph /  12.9km/h 37% 0.00in /  0mm 905.0 W/m2
15:31 85.1 °F /  29.5 °C 55.9 °F /  13.3 °C 29.73in /  1006.7hPa NNE 4.9mph /  7.9km/h 11.0mph /  17.7km/h 37% 0.00in /  0mm 956.0 W/m2
15:36 85.6 °F /  29.8 °C 56.3 °F /  13.5 °C 29.72in /  1006.3hPa WNW 2.9mph /  4.7km/h 9.0mph /  14.5km/h 37% 0.00in /  0mm 951.0 W/m2
15:41 85.6 °F /  29.8 °C 55.6 °F /  13.1 °C 29.72in /  1006.3hPa NNE 8.9mph /  14.3km/h 9.0mph /  14.5km/h 36% 0.00in /  0mm 195.0 W/m2
15:47 85.1 °F /  29.5 °C 55.9 °F /  13.3 °C 29.72in /  1006.3hPa NNE 13.0mph /  20.9km/h 13.0mph /  20.9km/h 37% 0.00in /  0mm 947.0 W/m2
15:52 84.7 °F /  29.3 °C 55.6 °F /  13.1 °C 29.72in /  1006.3hPa NNW 4.9mph /  7.9km/h 11.0mph /  17.7km/h 37% 0.00in /  0mm 214.0 W/m2
15:58 84.0 °F /  28.9 °C 54.9 °F /  12.7 °C 29.72in /  1006.3hPa NNW 4.0mph /  6.4km/h 9.0mph /  14.5km/h 37% 0.00in /  0mm 223.0 W/m2
16:03 84.4 °F /  29.1 °C 55.2 °F /  12.9 °C 29.72in /  1006.3hPa NE 4.9mph /  7.9km/h 8.0mph /  12.9km/h 37% 0.00in /  0mm 881.0 W/m2
16:08 85.3 °F /  29.6 °C 56.1 °F /  13.4 °C 29.72in /  1006.3hPa NNE 4.9mph /  7.9km/h 13.0mph /  20.9km/h 37% 0.00in /  0mm 904.0 W/m2
16:13 86.2 °F /  30.1 °C 56.1 °F /  13.4 °C 29.72in /  1006.3hPa NNW 4.0mph /  6.4km/h 11.0mph /  17.7km/h 36% 0.00in /  0mm 856.0 W/m2
16:18 85.8 °F /  29.9 °C 56.5 °F /  13.6 °C 29.71in /  1006hPa NNW 2.0mph /  3.2km/h 9.0mph /  14.5km/h 37% 0.00in /  0mm 779.0 W/m2
16:23 86.2 °F /  30.1 °C 56.8 °F /  13.8 °C 29.72in /  1006.3hPa NNW 6.9mph /  11.1km/h 12.0mph /  19.3km/h 37% 0.00in /  0mm 826.0 W/m2
16:28 86.4 °F /  30.2 °C 56.3 °F /  13.5 °C 29.72in /  1006.3hPa ENE 6.9mph /  11.1km/h 13.0mph /  20.9km/h 36% 0.00in /  0mm 334.0 W/m2
16:34 84.9 °F /  29.4 °C 55.8 °F /  13.2 °C 29.72in /  1006.3hPa NNW 4.0mph /  6.4km/h 15.0mph /  24.1km/h 37% 0.00in /  0mm 200.0 W/m2
16:39 83.7 °F /  28.7 °C 56.1 °F /  13.4 °C 29.72in /  1006.3hPa NNE 2.9mph /  4.7km/h 11.0mph /  17.7km/h 39% 0.00in /  0mm 199.0 W/m2
16:44 82.8 °F /  28.2 °C 55.9 °F /  13.3 °C 29.72in /  1006.3hPa North 8.1mph /  13km/h 9.0mph /  14.5km/h 40% 0.00in /  0mm 141.0 W/m2
16:49 82.0 °F /  27.8 °C 55.9 °F /  13.3 °C 29.72in /  1006.3hPa ENE 2.9mph /  4.7km/h 10.0mph /  16.1km/h 41% 0.00in /  0mm 160.0 W/m2
16:54 81.9 °F /  27.7 °C 55.9 °F /  13.3 °C 29.72in /  1006.3hPa NNE 4.9mph /  7.9km/h 7.0mph /  11.3km/h 41% 0.00in /  0mm 139.0 W/m2
16:59 81.7 °F /  27.6 °C 55.0 °F /  12.8 °C 29.72in /  1006.3hPa NNE 6.9mph /  11.1km/h 11.0mph /  17.7km/h 40% 0.00in /  0mm 128.0 W/m2
17:04 81.7 °F /  27.6 °C 54.3 °F /  12.4 °C 29.72in /  1006.3hPa NNW 0.9mph /  1.4km/h 3.0mph /  4.8km/h 39% 0.00in /  0mm 125.0 W/m2
17:09 81.7 °F /  27.6 °C 55.0 °F /  12.8 °C 29.72in /  1006.3hPa Calm   3.0mph /  4.8km/h 40% 0.00in /  0mm 209.0 W/m2
17:15 82.4 °F /  28 °C 55.6 °F /  13.1 °C 29.72in /  1006.3hPa NNW 2.9mph /  4.7km/h 15.0mph /  24.1km/h 40% 0.00in /  0mm 276.0 W/m2
17:20 82.8 °F /  28.2 °C 55.9 °F /  13.3 °C 29.72in /  1006.3hPa NNW 2.9mph /  4.7km/h 7.0mph /  11.3km/h 40% 0.00in /  0mm 123.0 W/m2
17:25 82.8 °F /  28.2 °C 55.9 °F /  13.3 °C 29.72in /  1006.3hPa WNW 4.0mph /  6.4km/h 7.0mph /  11.3km/h 40% 0.00in /  0mm 185.0 W/m2
17:30 82.6 °F /  28.1 °C 55.8 °F /  13.2 °C 29.72in /  1006.3hPa NW 6.0mph /  9.7km/h 10.0mph /  16.1km/h 40% 0.00in /  0mm 260.0 W/m2
17:35 82.8 °F /  28.2 °C 55.9 °F /  13.3 °C 29.72in /  1006.3hPa NNW 6.9mph /  11.1km/h 8.0mph /  12.9km/h 40% 0.00in /  0mm 151.0 W/m2
17:40 82.6 °F /  28.1 °C 56.5 °F /  13.6 °C 29.72in /  1006.3hPa West 0.9mph /  1.4km/h 4.0mph /  6.4km/h 41% 0.00in /  0mm 163.0 W/m2
17:45 82.2 °F /  27.9 °C 56.1 °F /  13.4 °C 29.73in /  1006.7hPa NNW 6.0mph /  9.7km/h 9.0mph /  14.5km/h 41% 0.00in /  0mm 246.0 W/m2
17:50 82.0 °F /  27.8 °C 55.9 °F /  13.3 °C 29.73in /  1006.7hPa NNE 4.9mph /  7.9km/h 11.0mph /  17.7km/h 41% 0.00in /  0mm 156.0 W/m2
17:55 81.7 °F /  27.6 °C 56.3 °F /  13.5 °C 29.73in /  1006.7hPa NNW 4.9mph /  7.9km/h 13.0mph /  20.9km/h 42% 0.00in /  0mm 193.0 W/m2
18:00 81.3 °F /  27.4 °C 56.7 °F /  13.7 °C 29.72in /  1006.3hPa WNW 2.0mph /  3.2km/h 7.0mph /  11.3km/h 43% 0.00in /  0mm 155.0 W/m2
18:06 81.3 °F /  27.4 °C 56.1 °F /  13.4 °C 29.73in /  1006.7hPa WNW 2.9mph /  4.7km/h 8.0mph /  12.9km/h 42% 0.00in /  0mm 134.0 W/m2
18:11 81.1 °F /  27.3 °C 55.9 °F /  13.3 °C 29.73in /  1006.7hPa NW 0.9mph /  1.4km/h 12.0mph /  19.3km/h 42% 0.00in /  0mm 269.0 W/m2
18:16 81.1 °F /  27.3 °C 55.2 °F /  12.9 °C 29.73in /  1006.7hPa North 6.0mph /  9.7km/h 10.0mph /  16.1km/h 41% 0.00in /  0mm 83.0 W/m2
18:21 81.3 °F /  27.4 °C 55.4 °F /  13 °C 29.73in /  1006.7hPa North 2.9mph /  4.7km/h 11.0mph /  17.7km/h 41% 0.00in /  0mm 146.0 W/m2
18:27 81.1 °F /  27.3 °C 55.2 °F /  12.9 °C 29.73in /  1006.7hPa NNW 4.9mph /  7.9km/h 8.0mph /  12.9km/h 41% 0.00in /  0mm 207.0 W/m2
18:32 81.3 °F /  27.4 °C 55.4 °F /  13 °C 29.73in /  1006.7hPa North 2.9mph /  4.7km/h 10.0mph /  16.1km/h 41% 0.00in /  0mm 186.0 W/m2
18:37 81.3 °F /  27.4 °C 54.7 °F /  12.6 °C 29.74in /  1007hPa NNW 4.0mph /  6.4km/h 8.0mph /  12.9km/h 40% 0.00in /  0mm 162.0 W/m2
18:42 81.0 °F /  27.2 °C 55.0 °F /  12.8 °C 29.74in /  1007hPa North 4.9mph /  7.9km/h 7.0mph /  11.3km/h 41% 0.00in /  0mm 53.0 W/m2
18:47 80.6 °F /  27 °C 55.4 °F /  13 °C 29.74in /  1007hPa NNE 2.9mph /  4.7km/h 7.0mph /  11.3km/h 42% 0.00in /  0mm 53.0 W/m2
18:53 80.2 °F /  26.8 °C 55.8 °F /  13.2 °C 29.74in /  1007hPa NE 4.0mph /  6.4km/h 8.0mph /  12.9km/h 43% 0.00in /  0mm 42.0 W/m2
19:01 79.9 °F /  26.6 °C 55.4 °F /  13 °C 29.74in /  1007hPa North 2.9mph /  4.7km/h -999.0mph /  -1607.7km/h 43% 0.00in /  0mm 32.0 W/m2
19:07 79.5 °F /  26.4 °C 55.8 °F /  13.2 °C 29.75in /  1007.3hPa NNW 6.0mph /  9.7km/h 7.0mph /  11.3km/h 44% 0.00in /  0mm 19.0 W/m2
19:13 79.3 °F /  26.3 °C 55.6 °F /  13.1 °C 29.75in /  1007.3hPa NE 0.9mph /  1.4km/h 9.0mph /  14.5km/h 44% 0.00in /  0mm 12.0 W/m2
19:18 79.2 °F /  26.2 °C 55.4 °F /  13 °C 29.75in /  1007.3hPa North 2.9mph /  4.7km/h 5.0mph /  8km/h 44% 0.00in /  0mm 5.0 W/m2
19:23 79.2 °F /  26.2 °C 55.4 °F /  13 °C 29.75in /  1007.3hPa Calm   4.0mph /  6.4km/h 44% 0.00in /  0mm 0.0 W/m2
19:28 78.6 °F /  25.9 °C 54.3 °F /  12.4 °C 29.75in /  1007.3hPa ENE 4.0mph /  6.4km/h 5.0mph /  8km/h 43% 0.00in /  0mm 0.0 W/m2
19:33 78.4 °F /  25.8 °C 54.1 °F /  12.3 °C 29.76in /  1007.7hPa SE 2.9mph /  4.7km/h 3.0mph /  4.8km/h 43% 0.00in /  0mm 0.0 W/m2
19:38 78.1 °F /  25.6 °C 55.0 °F /  12.8 °C 29.76in /  1007.7hPa SSE 6.0mph /  9.7km/h 7.0mph /  11.3km/h 45% 0.00in /  0mm 0.0 W/m2
19:43 77.5 °F /  25.3 °C 57.9 °F /  14.4 °C 29.76in /  1007.7hPa SSW 2.9mph /  4.7km/h 5.0mph /  8km/h 51% 0.00in /  0mm 0.0 W/m2
19:49 76.6 °F /  24.8 °C 59.2 °F /  15.1 °C 29.77in /  1008hPa WSW 0.9mph /  1.4km/h 8.0mph /  12.9km/h 55% 0.00in /  0mm 0.0 W/m2
19:54 75.6 °F /  24.2 °C 59.2 °F /  15.1 °C 29.77in /  1008hPa SSE 0.9mph /  1.4km/h 14.0mph /  22.5km/h 57% 0.00in /  0mm 0.0 W/m2
19:59 74.3 °F /  23.5 °C 59.0 °F /  15 °C 29.77in /  1008hPa SE 0.9mph /  1.4km/h 8.0mph /  12.9km/h 59% 0.00in /  0mm 0.0 W/m2
20:04 73.6 °F /  23.1 °C 59.4 °F /  15.2 °C 29.77in /  1008hPa SE 2.0mph /  3.2km/h 9.0mph /  14.5km/h 61% 0.00in /  0mm 0.0 W/m2
20:10 72.9 °F /  22.7 °C 59.5 °F /  15.3 °C 29.77in /  1008hPa SSE 6.0mph /  9.7km/h 8.0mph /  12.9km/h 63% 0.00in /  0mm 0.0 W/m2
20:15 72.3 °F /  22.4 °C 59.5 °F /  15.3 °C 29.78in /  1008.4hPa SE 2.9mph /  4.7km/h 8.0mph /  12.9km/h 64% 0.00in /  0mm 0.0 W/m2
20:20 72.0 °F /  22.2 °C 59.5 °F /  15.3 °C 29.78in /  1008.4hPa SSW 2.0mph /  3.2km/h 3.0mph /  4.8km/h 65% 0.00in /  0mm 0.0 W/m2
20:25 71.4 °F /  21.9 °C 59.5 °F /  15.3 °C 29.79in /  1008.7hPa SSW 4.9mph /  7.9km/h 9.0mph /  14.5km/h 66% 0.00in /  0mm 0.0 W/m2
20:30 71.1 °F /  21.7 °C 59.5 °F /  15.3 °C 29.79in /  1008.7hPa SSE 2.9mph /  4.7km/h 7.0mph /  11.3km/h 67% 0.00in /  0mm 0.0 W/m2
20:35 70.9 °F /  21.6 °C 59.7 °F /  15.4 °C 29.79in /  1008.7hPa SSW 4.0mph /  6.4km/h 6.0mph /  9.7km/h 68% 0.00in /  0mm 0.0 W/m2
20:40 70.7 °F /  21.5 °C 59.5 °F /  15.3 °C 29.80in /  1009hPa Calm   5.0mph /  8km/h 68% 0.00in /  0mm 0.0 W/m2
20:46 70.5 °F /  21.4 °C 59.4 °F /  15.2 °C 29.80in /  1009hPa South 6.0mph /  9.7km/h 10.0mph /  16.1km/h 68% 0.00in /  0mm 0.0 W/m2
20:51 70.2 °F /  21.2 °C 59.5 °F /  15.3 °C 29.80in /  1009hPa SSW 2.9mph /  4.7km/h 3.0mph /  4.8km/h 69% 0.00in /  0mm 0.0 W/m2
20:56 70.2 °F /  21.2 °C 60.3 °F /  15.7 °C 29.82in /  1009.7hPa South 6.0mph /  9.7km/h 12.0mph /  19.3km/h 71% 0.00in /  0mm 0.0 W/m2
21:01 69.8 °F /  21 °C 61.9 °F /  16.6 °C 29.83in /  1010hPa WSW 11.0mph /  17.7km/h 11.0mph /  17.7km/h 76% 0.00in /  0mm 0.0 W/m2
21:06 68.7 °F /  20.4 °C 61.2 °F /  16.2 °C 29.83in /  1010hPa SW 6.0mph /  9.7km/h 11.0mph /  17.7km/h 77% 0.01in /  0.25mm 0.0 W/m2
21:11 67.6 °F /  19.8 °C 60.6 °F /  15.9 °C 29.83in /  1010hPa SSW 2.0mph /  3.2km/h 8.0mph /  12.9km/h 78% 0.02in /  0.51mm 0.0 W/m2
21:16 66.9 °F /  19.4 °C 61.2 °F /  16.2 °C 29.84in /  1010.4hPa SSW 2.9mph /  4.7km/h 7.0mph /  11.3km/h 82% 0.02in /  0.51mm 0.0 W/m2
21:21 66.4 °F /  19.1 °C 61.0 °F /  16.1 °C 29.83in /  1010hPa South 2.0mph /  3.2km/h 10.0mph /  16.1km/h 83% 0.02in /  0.51mm 0.0 W/m2
21:26 65.8 °F /  18.8 °C 60.8 °F /  16 °C 29.83in /  1010hPa SSE 8.9mph /  14.3km/h 10.0mph /  16.1km/h 84% 0.03in /  0.76mm 0.0 W/m2
21:31 65.7 °F /  18.7 °C 60.6 °F /  15.9 °C 29.84in /  1010.4hPa SE 4.0mph /  6.4km/h 9.0mph /  14.5km/h 84% 0.03in /  0.76mm 0.0 W/m2
21:36 65.5 °F /  18.6 °C 60.4 °F /  15.8 °C 29.84in /  1010.4hPa SE 4.0mph /  6.4km/h 10.0mph /  16.1km/h 84% 0.03in /  0.76mm 0.0 W/m2
21:42 65.5 °F /  18.6 °C 61.2 °F /  16.2 °C 29.84in /  1010.4hPa SSE 4.0mph /  6.4km/h 9.0mph /  14.5km/h 86% 0.03in /  0.76mm 0.0 W/m2
21:47 65.5 °F /  18.6 °C 61.5 °F /  16.4 °C 29.84in /  1010.4hPa SSE 6.0mph /  9.7km/h 7.0mph /  11.3km/h 87% 0.03in /  0.76mm 0.0 W/m2
21:52 65.3 °F /  18.5 °C 61.0 °F /  16.1 °C 29.84in /  1010.4hPa SE 0.9mph /  1.4km/h 4.0mph /  6.4km/h 86% 0.03in /  0.76mm 0.0 W/m2
21:57 65.1 °F /  18.4 °C 60.8 °F /  16 °C 29.84in /  1010.4hPa SE 4.9mph /  7.9km/h 8.0mph /  12.9km/h 86% 0.04in /  1.02mm 0.0 W/m2
22:02 65.1 °F /  18.4 °C 61.2 °F /  16.2 °C 29.85in /  1010.7hPa SE 2.9mph /  4.7km/h 6.0mph /  9.7km/h 87% 0.04in /  1.02mm 0.0 W/m2
22:07 64.8 °F /  18.2 °C 60.1 °F /  15.6 °C 29.85in /  1010.7hPa SE 6.0mph /  9.7km/h 7.0mph /  11.3km/h 85% 0.03in /  0.76mm 0.0 W/m2
22:12 64.6 °F /  18.1 °C 60.3 °F /  15.7 °C 29.85in /  1010.7hPa SSE 2.9mph /  4.7km/h 5.0mph /  8km/h 86% 0.02in /  0.51mm 0.0 W/m2
22:17 64.4 °F /  18 °C 59.7 °F /  15.4 °C 29.85in /  1010.7hPa Calm   6.0mph /  9.7km/h 85% 0.02in /  0.51mm 0.0 W/m2
22:22 64.2 °F /  17.9 °C 59.9 °F /  15.5 °C 29.85in /  1010.7hPa SE 2.9mph /  4.7km/h 4.0mph /  6.4km/h 86% 0.02in /  0.51mm 0.0 W/m2
22:28 64.2 °F /  17.9 °C 59.9 °F /  15.5 °C 29.86in /  1011.1hPa NNE 2.0mph /  3.2km/h 3.0mph /  4.8km/h 86% 0.02in /  0.51mm 0.0 W/m2
22:34 64.0 °F /  17.8 °C 59.7 °F /  15.4 °C 29.85in /  1010.7hPa Calm     86% 0.02in /  0.51mm 0.0 W/m2
22:39 64.0 °F /  17.8 °C 60.1 °F /  15.6 °C 29.86in /  1011.1hPa Calm     87% 0.02in /  0.51mm 0.0 W/m2
22:44 64.0 °F /  17.8 °C 60.4 °F /  15.8 °C 29.86in /  1011.1hPa Calm   1.0mph /  1.6km/h 88% 0.02in /  0.51mm 0.0 W/m2
22:49 64.0 °F /  17.8 °C 60.1 °F /  15.6 °C 29.85in /  1010.7hPa Calm     87% 0.02in /  0.51mm 0.0 W/m2
22:54 64.0 °F /  17.8 °C 60.1 °F /  15.6 °C 29.85in /  1010.7hPa Calm   1.0mph /  1.6km/h 87% 0.02in /  0.51mm 0.0 W/m2
23:01 64.0 °F /  17.8 °C 59.7 °F /  15.4 °C 29.85in /  1010.7hPa Calm   2.0mph /  3.2km/h 86% 0.00in /  0mm 0.0 W/m2
23:06 64.0 °F /  17.8 °C 59.7 °F /  15.4 °C 29.85in /  1010.7hPa Calm   1.0mph /  1.6km/h 86% 0.00in /  0mm 0.0 W/m2
23:11 64.0 °F /  17.8 °C 59.7 °F /  15.4 °C 29.85in /  1010.7hPa Calm     86% 0.00in /  0mm 0.0 W/m2
23:16 64.0 °F /  17.8 °C 59.7 °F /  15.4 °C 29.85in /  1010.7hPa Calm     86% 0.00in /  0mm 0.0 W/m2
23:22 64.0 °F /  17.8 °C 60.1 °F /  15.6 °C 29.85in /  1010.7hPa Calm     87% 0.00in /  0mm 0.0 W/m2
23:27 64.2 °F /  17.9 °C 60.6 °F /  15.9 °C 29.85in /  1010.7hPa West 0.9mph /  1.4km/h 1.0mph /  1.6km/h 88% 0.00in /  0mm 0.0 W/m2
23:33 64.2 °F /  17.9 °C 61.0 °F /  16.1 °C 29.85in /  1010.7hPa Calm   3.0mph /  4.8km/h 89% 0.00in /  0mm 0.0 W/m2
23:38 64.2 °F /  17.9 °C 60.3 °F /  15.7 °C 29.85in /  1010.7hPa Calm   2.0mph /  3.2km/h 87% 0.00in /  0mm 0.0 W/m2
23:43 64.2 °F /  17.9 °C 60.3 °F /  15.7 °C 29.85in /  1010.7hPa Calm   3.0mph /  4.8km/h 87% 0.00in /  0mm 0.0 W/m2
23:48 64.2 °F /  17.9 °C 60.3 °F /  15.7 °C 29.85in /  1010.7hPa Calm   1.0mph /  1.6km/h 87% 0.00in /  0mm 0.0 W/m2
23:53 64.2 °F /  17.9 °C 60.6 °F /  15.9 °C 29.85in /  1010.7hPa Calm     88% 0.00in /  0mm 0.0 W/m2
23:58 64.2 °F /  17.9 °C 60.3 °F /  15.7 °C 29.85in /  1010.7hPa Calm   1.0mph /  1.6km/h 87% 0.00in /  0mm 0.0 W/m2
Olympia, Windhoek, Namibia
Compliments of Weather Underground - 3.25 mb